Time;durP1;ratioP1;P1;durP2;ratioP2;P2;SDS_P1;SDS_P2;PMS_P1;PMS_P2;Temp;Humidity;BMP_temperature;BMP_pressure;BME280_temperature;BME280_humidity;BME280_pressure;Samples;Min_cycle;Max_cycle;Signal;HPM_P1;HPM_P2
2022/08/29 00:01:20;;;;;;;4.38;2.70;;;15.60;99.90;;;;;;4995756;28;20110;-80
2022/08/29 00:03:46;;;;;;;8.73;2.67;;;15.60;99.90;;;;;;4966453;28;20051;-79
2022/08/29 00:06:12;;;;;;;5.95;2.72;;;15.60;99.90;;;;;;4967448;28;20055;-80
2022/08/29 00:08:38;;;;;;;6.72;3.22;;;15.70;99.90;;;;;;4964772;28;20138;-80
2022/08/29 00:11:05;;;;;;;5.05;2.95;;;15.70;99.90;;;;;;4965273;28;20049;-80
2022/08/29 00:13:31;;;;;;;5.40;2.95;;;15.70;99.90;;;;;;4965474;28;20062;-80
2022/08/29 00:15:57;;;;;;;5.43;3.30;;;15.70;99.90;;;;;;4968707;28;20285;-79
2022/08/29 00:18:22;;;;;;;7.03;3.03;;;15.70;99.90;;;;;;4967368;28;20043;-80
2022/08/29 00:20:48;;;;;;;8.80;2.85;;;15.70;99.90;;;;;;4960402;28;20046;-80
2022/08/29 00:23:14;;;;;;;6.80;2.53;;;15.80;99.90;;;;;;4965391;28;20047;-80
2022/08/29 00:25:39;;;;;;;6.28;3.05;;;15.70;99.90;;;;;;4944461;28;20134;-79
2022/08/29 00:28:05;;;;;;;8.30;3.30;;;15.70;99.90;;;;;;4969011;28;20068;-79
2022/08/29 00:30:33;;;;;;;5.80;2.75;;;15.80;99.90;;;;;;4965423;28;20157;-79
2022/08/29 00:32:59;;;;;;;6.93;3.25;;;15.80;99.90;;;;;;4980297;28;20053;-78
2022/08/29 00:35:27;;;;;;;7.25;3.17;;;15.80;99.90;;;;;;4965445;28;20496;-80
2022/08/29 00:37:53;;;;;;;8.57;3.42;;;15.80;99.90;;;;;;4964800;28;20065;-80
2022/08/29 00:40:29;;;;;;;8.15;3.17;;;15.80;99.90;;;;;;4966983;28;20582;-80
2022/08/29 00:42:55;;;;;;;6.63;3.15;;;15.80;99.90;;;;;;4965659;28;20035;-80
2022/08/29 00:45:21;;;;;;;9.02;3.42;;;15.70;99.90;;;;;;4952541;28;20066;-79
2022/08/29 00:47:57;;;;;;;9.80;3.50;;;15.70;99.90;;;;;;4965275;28;20054;-80
2022/08/29 00:50:43;;;;;;;8.73;3.40;;;15.80;99.90;;;;;;4962138;28;20043;-80
2022/08/29 00:53:11;;;;;;;10.10;3.25;;;15.80;99.90;;;;;;4966149;28;20494;-80
2022/08/29 00:55:38;;;;;;;5.53;2.63;;;15.70;99.90;;;;;;4964632;28;20110;-80
2022/08/29 00:58:11;;;;;;;10.20;3.15;;;15.70;99.90;;;;;;4964496;28;20058;-80
2022/08/29 01:00:38;;;;;;;6.40;2.90;;;15.70;99.90;;;;;;4963330;28;20074;-78
2022/08/29 01:03:05;;;;;;;4.82;2.88;;;15.70;99.90;;;;;;4966936;28;20070;-80
2022/08/29 01:05:31;;;;;;;6.22;2.92;;;15.70;99.90;;;;;;4951515;28;20038;-79
2022/08/29 01:07:57;;;;;;;4.82;2.55;;;15.80;99.90;;;;;;4968243;28;20050;-79
2022/08/29 01:13:08;;;;;;;4.13;2.55;;;15.70;99.90;;;;;;4963195;28;20118;-79
2022/08/29 01:15:36;;;;;;;5.38;2.90;;;15.70;99.90;;;;;;4993902;28;20132;-80
2022/08/29 01:18:03;;;;;;;4.10;2.45;;;15.70;99.90;;;;;;4963154;28;20495;-79
2022/08/29 01:20:49;;;;;;;6.30;3.78;;;15.70;99.90;;;;;;4967252;28;20062;-80
2022/08/29 01:23:22;;;;;;;;;;;15.70;99.90;;;;;;4953112;28;20412;-80
2022/08/29 01:25:50;;;;;;;9.35;3.25;;;15.70;99.90;;;;;;4968688;28;19934;-80
2022/08/29 01:28:21;;;;;;;7.57;3.33;;;15.70;99.90;;;;;;4963282;28;20047;-78
2022/08/29 01:31:06;;;;;;;3.85;3.15;;;15.70;99.90;;;;;;4965950;28;20042;-80
2022/08/29 01:33:52;;;;;;;7.97;2.90;;;15.70;99.90;;;;;;4968800;28;20039;-80
2022/08/29 01:36:24;;;;;;;5.40;2.95;;;15.70;99.90;;;;;;4994891;28;20412;-80
2022/08/29 01:38:50;;;;;;;5.20;2.83;;;15.70;99.90;;;;;;4967771;28;20039;-79
2022/08/29 01:41:19;;;;;;;8.30;2.97;;;15.80;99.90;;;;;;4965866;28;20055;-77
2022/08/29 01:43:55;;;;;;;7.45;2.78;;;15.70;99.90;;;;;;4947883;28;20101;-80
2022/08/29 01:46:33;;;;;;;6.32;3.33;;;15.80;99.90;;;;;;4995386;28;20063;-79
2022/08/29 01:49:01;;;;;;;6.72;3.25;;;15.70;99.90;;;;;;4962702;28;20047;-80
2022/08/29 01:51:26;;;;;;;6.38;3.03;;;15.80;99.90;;;;;;4964412;28;20130;-79
2022/08/29 01:53:52;;;;;;;6.55;2.95;;;15.80;99.90;;;;;;4963240;28;20118;-80
2022/08/29 01:56:24;;;;;;;7.07;3.05;;;15.80;99.90;;;;;;4964548;28;20043;-80
2022/08/29 01:58:52;;;;;;;8.02;3.08;;;15.80;99.90;;;;;;4993140;28;20050;-80
2022/08/29 02:01:22;;;;;;;8.43;3.53;;;15.70;99.90;;;;;;4996356;28;20085;-80
2022/08/29 02:03:47;;;;;;;9.23;2.75;;;15.80;99.90;;;;;;4966323;28;20055;-80
2022/08/29 02:06:13;;;;;;;5.32;2.55;;;15.80;99.90;;;;;;4998739;28;20569;-79
2022/08/29 02:08:41;;;;;;;6.43;2.60;;;15.80;99.90;;;;;;4967318;28;20045;-77
2022/08/29 02:11:09;;;;;;;7.18;3.22;;;15.70;99.90;;;;;;4994387;28;20640;-80
2022/08/29 02:13:39;;;;;;;7.53;3.22;;;15.70;99.90;;;;;;4962381;28;20104;-80
2022/08/29 02:16:05;;;;;;;9.93;3.22;;;15.70;99.90;;;;;;4961720;28;20051;-79
2022/08/29 02:18:31;;;;;;;6.65;2.55;;;15.70;99.90;;;;;;4964143;28;20058;-79
2022/08/29 02:20:58;;;;;;;5.53;2.90;;;15.70;99.90;;;;;;4962763;28;20058;-79
2022/08/29 02:23:23;;;;;;;7.72;3.33;;;15.70;99.90;;;;;;4965933;28;20031;-79
2022/08/29 02:25:49;;;;;;;5.50;3.00;;;15.70;99.90;;;;;;4964185;28;20105;-80
2022/08/29 02:28:17;;;;;;;6.68;3.13;;;15.70;99.90;;;;;;4996087;28;20150;-80
2022/08/29 02:30:47;;;;;;;7.15;3.60;;;15.60;99.90;;;;;;4965102;28;20039;-79
2022/08/29 02:33:14;;;;;;;6.22;2.55;;;15.60;99.90;;;;;;4962080;28;20057;-79
2022/08/29 02:35:39;;;;;;;7.00;3.17;;;15.60;99.90;;;;;;4961220;28;20039;-79
2022/08/29 02:38:06;;;;;;;7.10;3.05;;;15.60;99.90;;;;;;4996567;28;20824;-79
2022/08/29 02:40:32;;;;;;;8.15;2.83;;;15.60;99.90;;;;;;4994398;28;20047;-79
2022/08/29 02:42:58;;;;;;;6.30;2.78;;;15.60;99.90;;;;;;4964380;28;20633;-80
2022/08/29 02:45:23;;;;;;;6.35;2.60;;;15.60;99.90;;;;;;4965706;28;20038;-80
2022/08/29 02:47:49;;;;;;;6.05;2.80;;;15.60;99.90;;;;;;4965349;28;20043;-80
2022/08/29 02:50:16;;;;;;;6.75;2.60;;;15.70;99.90;;;;;;4963069;28;20058;-79
2022/08/29 02:52:42;;;;;;;8.32;3.30;;;15.60;99.90;;;;;;4966040;28;20146;-77
2022/08/29 02:55:12;;;;;;;6.28;3.20;;;15.60;99.90;;;;;;4968630;28;20070;-78
2022/08/29 02:57:37;;;;;;;4.57;2.65;;;15.60;99.90;;;;;;4994749;28;20554;-80
2022/08/29 03:00:07;;;;;;;7.05;2.58;;;15.60;99.90;;;;;;4964861;28;20122;-78
2022/08/29 03:02:33;;;;;;;4.88;2.88;;;15.60;99.90;;;;;;4995117;28;20434;-79
2022/08/29 03:04:59;;;;;;;7.30;3.20;;;15.60;99.90;;;;;;4961513;28;20042;-80
2022/08/29 03:07:25;;;;;;;7.65;3.00;;;15.50;99.90;;;;;;4997649;28;20456;-79
2022/08/29 03:09:50;;;;;;;5.22;2.70;;;15.50;99.90;;;;;;4962668;28;20042;-80
2022/08/29 03:12:16;;;;;;;8.13;2.90;;;15.50;99.90;;;;;;4992976;28;20491;-80
2022/08/29 03:14:42;;;;;;;5.18;2.67;;;15.50;99.90;;;;;;4980250;28;20074;-80
2022/08/29 03:17:08;;;;;;;5.13;3.03;;;15.50;99.90;;;;;;4971830;28;20047;-80
2022/08/29 03:19:33;;;;;;;5.38;2.67;;;15.60;99.90;;;;;;4994084;28;20051;-81
2022/08/29 03:21:59;;;;;;;7.03;3.30;;;15.50;99.90;;;;;;4982400;28;20085;-80
2022/08/29 03:24:25;;;;;;;10.77;2.88;;;15.60;99.90;;;;;;4962414;28;20043;-80
2022/08/29 03:26:51;;;;;;;5.78;2.60;;;15.60;99.90;;;;;;4960946;28;20054;-78
2022/08/29 03:29:17;;;;;;;5.07;2.78;;;15.60;99.90;;;;;;4991717;28;20063;-78
2022/08/29 03:31:42;;;;;;;8.00;2.53;;;15.60;99.90;;;;;;4963655;28;20048;-80
2022/08/29 03:34:08;;;;;;;4.47;2.22;;;15.60;99.90;;;;;;4964199;28;20069;-80
2022/08/29 03:36:33;;;;;;;6.57;2.65;;;15.60;99.90;;;;;;4968981;28;20389;-80
2022/08/29 03:38:59;;;;;;;4.90;2.47;;;15.60;99.90;;;;;;4977142;28;20530;-80
2022/08/29 03:41:28;;;;;;;5.25;2.22;;;15.60;99.90;;;;;;4961604;28;20758;-80
2022/08/29 03:43:54;;;;;;;6.47;2.58;;;15.60;99.90;;;;;;4965781;28;20475;-80
2022/08/29 03:46:21;;;;;;;7.82;3.15;;;15.70;99.90;;;;;;4962334;28;20083;-80
2022/08/29 03:48:47;;;;;;;6.57;2.80;;;15.70;99.90;;;;;;4995783;28;20129;-79
2022/08/29 03:51:14;;;;;;;6.53;2.80;;;15.60;99.90;;;;;;4962833;28;20051;-79
2022/08/29 03:53:39;;;;;;;4.93;2.60;;;15.60;99.90;;;;;;4964025;28;20101;-78
2022/08/29 03:56:06;;;;;;;6.15;2.75;;;15.70;99.90;;;;;;4960729;28;20049;-79
2022/08/29 03:58:33;;;;;;;6.43;2.20;;;15.60;99.90;;;;;;4963228;28;20159;-80
2022/08/29 04:00:59;;;;;;;7.78;3.33;;;15.60;99.90;;;;;;4966296;28;20078;-79
2022/08/29 04:03:25;;;;;;;5.00;2.40;;;15.60;99.90;;;;;;4962476;28;20062;-80
2022/08/29 04:05:51;;;;;;;6.72;2.78;;;15.60;99.90;;;;;;4979479;28;20483;-80
2022/08/29 04:08:16;;;;;;;12.68;2.67;;;15.60;99.90;;;;;;4960881;28;20051;-79
2022/08/29 04:10:42;;;;;;;7.85;2.63;;;15.60;99.90;;;;;;4966410;28;20038;-80
2022/08/29 04:13:08;;;;;;;5.95;2.63;;;15.60;99.90;;;;;;4966348;28;20059;-80
2022/08/29 04:15:37;;;;;;;6.55;2.80;;;15.60;99.90;;;;;;4999162;28;20089;-79
2022/08/29 04:18:05;;;;;;;7.95;2.60;;;15.50;99.90;;;;;;4961396;28;20055;-80
2022/08/29 04:20:34;;;;;;;7.25;2.38;;;15.50;99.90;;;;;;4998817;28;20109;-81
2022/08/29 04:23:00;;;;;;;6.65;2.72;;;15.50;99.90;;;;;;4965412;28;20074;-80
2022/08/29 04:25:35;;;;;;;5.97;2.72;;;15.50;99.90;;;;;;4966145;28;20613;-79
2022/08/29 04:28:03;;;;;;;5.43;2.95;;;15.50;99.90;;;;;;4962184;28;20125;-81
2022/08/29 04:30:29;;;;;;;7.00;2.75;;;15.50;99.90;;;;;;4964940;28;20047;-82
2022/08/29 04:32:55;;;;;;;7.15;2.70;;;15.50;99.90;;;;;;4966728;28;20081;-82
2022/08/29 04:35:21;;;;;;;6.57;2.75;;;15.50;99.90;;;;;;4962871;28;20043;-82
2022/08/29 04:37:47;;;;;;;7.70;2.65;;;15.50;99.90;;;;;;4960037;28;20789;-82
2022/08/29 04:40:15;;;;;;;8.57;3.00;;;15.50;99.90;;;;;;4951516;28;20051;-80
2022/08/29 04:42:41;;;;;;;5.30;2.17;;;15.40;99.90;;;;;;4964947;28;20046;-80
2022/08/29 04:45:11;;;;;;;7.15;2.50;;;15.40;99.90;;;;;;4963127;28;20043;-80
2022/08/29 04:47:37;;;;;;;7.72;3.30;;;15.40;99.90;;;;;;4957876;28;20039;-81
2022/08/29 04:50:05;;;;;;;8.65;2.65;;;15.40;99.90;;;;;;4961571;28;20039;-79
2022/08/29 04:52:31;;;;;;;7.57;2.03;;;15.40;99.90;;;;;;4959851;28;20050;-80
2022/08/29 04:54:57;;;;;;;10.43;2.42;;;15.40;99.90;;;;;;4965957;28;20035;-81
2022/08/29 04:57:23;;;;;;;10.32;2.63;;;15.40;99.90;;;;;;4965234;28;20042;-77
2022/08/29 04:59:57;;;;;;;7.85;2.63;;;15.40;99.90;;;;;;4996208;28;20111;-81
2022/08/29 05:02:23;;;;;;;5.05;2.40;;;15.50;99.90;;;;;;4970358;28;20035;-79
2022/08/29 05:04:57;;;;;;;6.20;2.70;;;15.50;99.90;;;;;;4968999;28;20043;-81
2022/08/29 05:07:25;;;;;;;6.72;1.95;;;15.50;99.90;;;;;;4967096;28;20046;-79
2022/08/29 05:09:59;;;;;;;8.25;2.30;;;15.60;99.90;;;;;;4965757;28;20043;-81
2022/08/29 05:12:27;;;;;;;5.38;1.85;;;15.60;99.90;;;;;;4968776;28;20055;-81
2022/08/29 05:14:53;;;;;;;6.45;2.63;;;15.60;99.90;;;;;;5002618;28;20035;-81
2022/08/29 05:17:19;;;;;;;6.25;1.85;;;15.60;99.90;;;;;;4970366;28;20462;-80
2022/08/29 05:19:45;;;;;;;6.88;2.08;;;15.70;99.90;;;;;;4965950;28;20054;-80
2022/08/29 05:22:12;;;;;;;7.38;3.22;;;15.70;99.90;;;;;;5003208;28;20155;-81
2022/08/29 05:24:38;;;;;;;7.05;1.98;;;15.70;99.90;;;;;;4970468;28;20113;-81
2022/08/29 05:27:09;;;;;;;8.93;1.95;;;15.80;99.90;;;;;;5000996;28;20500;-80
2022/08/29 05:29:44;;;;;;;7.18;2.30;;;16.00;99.90;;;;;;4982501;28;20122;-81
2022/08/29 05:32:11;;;;;;;4.75;2.22;;;16.20;99.90;;;;;;4999139;28;20145;-80
2022/08/29 05:34:37;;;;;;;8.20;2.67;;;16.40;99.90;;;;;;4963416;28;20043;-81
2022/08/29 05:37:05;;;;;;;5.90;2.00;;;17.20;99.90;;;;;;4956571;28;20181;-80
2022/08/29 05:39:32;;;;;;;7.85;2.03;;;17.80;99.90;;;;;;4951721;28;20097;-81
2022/08/29 05:41:58;;;;;;;6.90;2.45;;;18.20;99.90;;;;;;4966949;28;20051;-80
2022/08/29 05:44:25;;;;;;;7.15;2.38;;;18.30;99.90;;;;;;4970700;28;20054;-79
2022/08/29 05:46:50;;;;;;;7.88;2.50;;;18.20;99.90;;;;;;4955162;28;20043;-79
2022/08/29 05:49:16;;;;;;;6.15;1.98;;;18.20;99.90;;;;;;4982300;28;20419;-80
2022/08/29 05:51:41;;;;;;;8.32;2.95;;;18.00;99.90;;;;;;4969056;28;20149;-79
2022/08/29 05:54:07;;;;;;;5.53;2.40;;;17.90;99.90;;;;;;4966854;28;20066;-79
2022/08/29 05:56:33;;;;;;;8.88;2.97;;;17.80;99.90;;;;;;4973453;28;20074;-79
2022/08/29 05:58:59;;;;;;;7.03;1.73;;;17.70;99.90;;;;;;4967472;28;20043;-78
2022/08/29 06:01:27;;;;;;;6.05;2.00;;;17.60;99.90;;;;;;4996340;28;20035;-78
2022/08/29 06:03:54;;;;;;;4.50;2.03;;;17.50;99.90;;;;;;4999459;28;20121;-79
2022/08/29 06:06:24;;;;;;;5.13;1.80;;;17.50;99.90;;;;;;4968723;28;20066;-79
2022/08/29 06:08:51;;;;;;;7.18;2.15;;;17.40;99.90;;;;;;4978642;28;20071;-80
2022/08/29 06:11:18;;;;;;;6.65;2.05;;;17.40;99.90;;;;;;4955701;28;20422;-79
2022/08/29 06:13:44;;;;;;;6.63;1.88;;;17.40;99.90;;;;;;4965894;28;20058;-79
2022/08/29 06:16:12;;;;;;;6.13;2.00;;;17.50;99.90;;;;;;4966463;28;20039;-78
2022/08/29 06:18:37;;;;;;;5.43;1.77;;;17.60;99.90;;;;;;4964575;28;20530;-79
2022/08/29 06:21:04;;;;;;;7.53;1.40;;;17.80;99.90;;;;;;4968426;28;20042;-79
2022/08/29 06:23:30;;;;;;;7.35;1.73;;;18.00;99.90;;;;;;4966433;28;20055;-79
2022/08/29 06:25:56;;;;;;;5.22;1.98;;;18.20;99.90;;;;;;4966904;28;20043;-79
2022/08/29 06:28:22;;;;;;;12.57;2.17;;;18.50;99.90;;;;;;4966664;28;20050;-80
2022/08/29 06:30:47;;;;;;;3.90;1.25;;;18.60;99.90;;;;;;4965047;28;20057;-80
2022/08/29 06:33:13;;;;;;;5.57;1.85;;;18.80;99.90;;;;;;4967337;28;20114;-79
2022/08/29 06:35:38;;;;;;;6.10;1.55;;;18.90;99.90;;;;;;4997165;28;20046;-80
2022/08/29 06:38:04;;;;;;;7.95;1.60;;;19.00;99.90;;;;;;4984563;28;20039;-79
2022/08/29 06:40:30;;;;;;;6.97;1.50;;;18.80;99.90;;;;;;4969044;28;20086;-80
2022/08/29 06:42:55;;;;;;;6.43;1.30;;;18.80;99.90;;;;;;4972254;28;20547;-79
2022/08/29 06:45:21;;;;;;;6.38;1.38;;;18.80;99.90;;;;;;4973690;28;20051;-80
2022/08/29 06:47:47;;;;;;;4.75;1.42;;;18.80;99.90;;;;;;4965585;28;20061;-80
2022/08/29 06:50:14;;;;;;;4.43;1.33;;;18.90;99.90;;;;;;4993290;28;20138;-81
2022/08/29 06:52:40;;;;;;;5.65;1.35;;;19.00;99.90;;;;;;4950269;28;20047;-79
2022/08/29 06:55:10;;;;;;;5.55;1.15;;;19.10;99.90;;;;;;4972493;28;20105;-79
2022/08/29 06:57:36;;;;;;;5.15;1.40;;;19.00;99.90;;;;;;4967069;28;20043;-80
2022/08/29 07:00:07;;;;;;;7.90;1.20;;;19.00;99.90;;;;;;4966747;28;20528;-79
2022/08/29 07:02:33;;;;;;;8.68;1.35;;;19.00;99.90;;;;;;4995029;28;20389;-80
2022/08/29 07:08:33;;;;;;;5.57;1.38;;;19.00;99.90;;;;;;4966367;28;20047;-81
2022/08/29 07:11:00;;;;;;;5.22;1.15;;;19.00;99.90;;;;;;4965930;28;20487;-82
2022/08/29 07:13:26;;;;;;;5.45;1.40;;;18.90;99.90;;;;;;4945961;28;20366;-81
2022/08/29 07:15:52;;;;;;;5.93;1.65;;;18.90;99.90;;;;;;4981371;28;20133;-82
2022/08/29 07:18:19;;;;;;;4.03;1.38;;;18.90;99.90;;;;;;4965352;28;20054;-82
2022/08/29 07:20:45;;;;;;;5.03;1.15;;;18.90;99.90;;;;;;4956298;28;20055;-82
2022/08/29 07:23:11;;;;;;;6.25;1.52;;;18.90;99.90;;;;;;4972618;28;20035;-82
2022/08/29 07:25:37;;;;;;;7.50;2.08;;;18.90;99.90;;;;;;4967317;28;20071;-81
2022/08/29 07:28:05;;;;;;;5.55;1.80;;;18.90;99.90;;;;;;4966248;28;20423;-81
2022/08/29 07:30:31;;;;;;;4.07;1.38;;;19.00;99.90;;;;;;4952220;28;20171;-82
2022/08/29 07:32:57;;;;;;;5.28;1.23;;;19.00;99.90;;;;;;4968383;28;20399;-81
2022/08/29 07:35:24;;;;;;;6.30;1.70;;;19.00;99.90;;;;;;4964822;28;20071;-81
2022/08/29 07:37:50;;;;;;;5.47;1.10;;;19.10;99.90;;;;;;4997467;28;20121;-81
2022/08/29 07:40:16;;;;;;;12.45;1.85;;;19.20;99.90;;;;;;4965103;28;20035;-81
2022/08/29 07:42:42;;;;;;;8.77;1.70;;;19.50;99.90;;;;;;4965302;28;20879;-81
2022/08/29 07:45:10;;;;;;;7.68;1.48;;;19.70;99.90;;;;;;4967415;28;20052;-81
2022/08/29 07:47:36;;;;;;;5.88;1.85;;;19.90;99.90;;;;;;4969792;28;20137;-81
2022/08/29 07:50:05;;;;;;;6.22;1.70;;;20.20;99.90;;;;;;4963155;28;20550;-81
2022/08/29 07:52:31;;;;;;;5.07;1.58;;;20.50;99.90;;;;;;4962523;28;20046;-81
2022/08/29 07:54:57;;;;;;;5.88;1.50;;;20.60;99.90;;;;;;4965675;28;20144;-81
2022/08/29 07:57:23;;;;;;;9.80;1.50;;;20.80;99.90;;;;;;4995462;28;20042;-81
2022/08/29 07:59:49;;;;;;;9.25;2.90;;;21.00;99.90;;;;;;4996931;28;20046;-81
2022/08/29 08:02:15;;;;;;;9.25;1.73;;;21.20;99.90;;;;;;4961489;28;20177;-81
2022/08/29 08:04:41;;;;;;;11.57;2.38;;;21.40;99.90;;;;;;4969398;28;20162;-82
2022/08/29 08:07:07;;;;;;;9.70;2.28;;;21.60;99.90;;;;;;4965009;28;20151;-81
2022/08/29 08:09:32;;;;;;;8.15;1.80;;;21.70;99.90;;;;;;4962972;28;20229;-81
2022/08/29 08:12:00;;;;;;;4.65;1.63;;;21.70;99.90;;;;;;4966238;28;20042;-82
2022/08/29 08:14:28;;;;;;;9.07;2.15;;;21.80;99.90;;;;;;4969053;28;20122;-82
2022/08/29 08:16:54;;;;;;;9.68;2.22;;;21.80;99.90;;;;;;4966600;28;20126;-82
2022/08/29 08:19:20;;;;;;;5.47;1.77;;;21.70;99.90;;;;;;4961047;28;20129;-82
2022/08/29 08:21:46;;;;;;;5.45;1.55;;;21.50;99.90;;;;;;4968899;28;20046;-82
2022/08/29 08:24:13;;;;;;;8.57;1.75;;;21.70;99.90;;;;;;4965020;28;20922;-82
2022/08/29 08:26:38;;;;;;;10.10;2.70;;;21.70;99.90;;;;;;4965221;28;20050;-82
2022/08/29 08:29:04;;;;;;;8.23;2.00;;;21.60;99.90;;;;;;4964258;28;20097;-82
2022/08/29 08:31:30;;;;;;;6.85;2.08;;;21.80;99.90;;;;;;4966388;28;20043;-82
2022/08/29 08:33:55;;;;;;;12.95;1.35;;;21.90;99.90;;;;;;4966386;28;20035;-82
2022/08/29 08:36:28;;;;;;;8.27;1.83;;;21.90;99.90;;;;;;4972899;28;20050;-82
2022/08/29 08:38:55;;;;;;;5.18;1.33;;;21.80;99.90;;;;;;4983498;28;20034;-83
2022/08/29 08:41:53;;;;;;;7.40;1.65;;;21.70;99.90;;;;;;4961823;28;20035;-82
2022/08/29 08:44:23;;;;;;;6.93;1.92;;;21.60;99.90;;;;;;4968956;28;20547;-82
2022/08/29 08:46:53;;;;;;;3.60;1.33;;;21.50;99.90;;;;;;5000883;28;20058;-82
2022/08/29 08:49:36;;;;;;;3.78;1.60;;;21.40;99.90;;;;;;4953135;28;20204;-81
2022/08/29 08:52:06;;;;;;;8.43;1.50;;;21.40;99.90;;;;;;4969128;28;20050;-82
2022/08/29 08:54:52;;;;;;;8.60;2.00;;;21.30;99.90;;;;;;4969618;28;20047;-81
2022/08/29 08:57:20;;;;;;;5.55;1.58;;;21.30;99.90;;;;;;4967065;28;20043;-82
2022/08/29 08:59:51;;;;;;;7.03;1.55;;;21.30;99.90;;;;;;4966990;28;20124;-82
2022/08/29 09:02:52;;;;;;;8.30;1.60;;;21.20;99.90;;;;;;4963777;28;20039;-82
2022/08/29 09:05:31;;;;;;;11.20;2.15;;;21.20;99.90;;;;;;4967312;28;20047;-82
2022/08/29 09:08:17;;;;;;;7.80;1.75;;;21.20;99.90;;;;;;4969502;28;20181;-82
2022/08/29 09:11:02;;;;;;;11.93;2.03;;;21.20;99.90;;;;;;4968958;28;20155;-82
2022/08/29 09:14:05;;;;;;;8.55;2.20;;;21.00;99.90;;;;;;4968289;28;20078;-81
2022/08/29 09:16:36;;;;;;;9.18;2.17;;;21.00;99.90;;;;;;4970734;28;20053;-79
2022/08/29 09:19:07;;;;;;;10.13;1.90;;;21.00;99.90;;;;;;4963753;28;20042;-80
2022/08/29 09:21:47;;;;;;;7.75;1.80;;;20.90;99.90;;;;;;4968452;28;20367;-82
2022/08/29 09:25:12;;;;;;;7.53;2.28;;;20.90;99.90;;;;;;4969324;28;20079;-81
2022/08/29 09:27:37;;;;;;;12.85;3.75;;;20.90;99.90;;;;;;4908309;29;20135;-82
2022/08/29 09:30:12;;;;;;;10.95;1.80;;;20.90;99.90;;;;;;4909136;29;20109;-82
2022/08/29 09:32:53;;;;;;;8.15;1.95;;;20.90;99.90;;;;;;4943610;28;20070;-81
2022/08/29 09:35:42;;;;;;;10.43;1.77;;;21.00;99.90;;;;;;4965511;28;20117;-81
2022/08/29 09:38:16;;;;;;;10.32;2.90;;;21.10;99.90;;;;;;4979060;28;20112;-81
2022/08/29 09:41:06;;;;;;;8.10;2.03;;;21.20;99.90;;;;;;5002065;28;20105;-81
2022/08/29 09:43:38;;;;;;;10.98;2.88;;;21.40;99.90;;;;;;4969957;28;20499;-81
2022/08/29 09:46:09;;;;;;;10.35;1.90;;;21.50;99.90;;;;;;4970562;28;20130;-81
2022/08/29 09:48:41;;;;;;;7.63;1.83;;;21.60;99.90;;;;;;4964041;28;20054;-81
2022/08/29 09:51:23;;;;;;;11.43;2.22;;;21.80;99.90;;;;;;4997933;28;20050;-81
2022/08/29 09:53:52;;;;;;;7.72;1.95;;;21.90;99.90;;;;;;5000273;28;20045;-81
2022/08/29 09:56:25;;;;;;;9.73;2.13;;;22.00;99.90;;;;;;4969170;28;20046;-81
2022/08/29 09:59:15;;;;;;;7.28;1.85;;;22.20;99.90;;;;;;4966761;28;20038;-81
2022/08/29 10:01:41;;;;;;;7.20;1.80;;;22.40;99.90;;;;;;4972388;28;20074;-81
2022/08/29 10:04:07;;;;;;;7.22;1.90;;;22.50;99.90;;;;;;4996524;28;20526;-81
2022/08/29 10:06:39;;;;;;;10.50;2.53;;;22.50;99.90;;;;;;4999899;28;20039;-82
2022/08/29 10:13:02;;;;;;;7.80;2.25;;;22.50;99.90;;;;;;4943185;28;20035;-82
2022/08/29 10:15:39;;;;;;;9.00;2.30;;;22.40;99.90;;;;;;4967444;28;20051;-80
2022/08/29 10:18:46;;;;;;;7.40;2.30;;;22.40;99.90;;;;;;4966279;28;20054;-81
2022/08/29 10:21:54;;;;;;;8.73;2.67;;;22.20;99.90;;;;;;4950450;28;20050;-81
2022/08/29 10:24:43;;;;;;;9.82;2.20;;;22.40;99.90;;;;;;4967986;28;20047;-81
2022/08/29 10:27:22;;;;;;;7.82;1.80;;;22.60;99.90;;;;;;4988212;28;20045;-79
2022/08/29 10:30:13;;;;;;;8.05;1.83;;;22.50;99.90;;;;;;4967400;28;20061;-81
2022/08/29 10:33:03;;;;;;;14.02;2.35;;;22.60;99.90;;;;;;4972449;28;20042;-79
2022/08/29 10:36:08;;;;;;;13.85;2.50;;;22.90;99.90;;;;;;4971815;28;20043;-80
2022/08/29 10:38:51;;;;;;;10.45;2.20;;;23.30;99.90;;;;;;4998868;28;20134;-79
2022/08/29 10:41:44;;;;;;;7.30;2.53;;;23.60;99.90;;;;;;4950685;28;20070;-81
2022/08/29 10:44:39;;;;;;;7.47;2.00;;;23.80;99.90;;;;;;4964522;28;20054;-82
2022/08/29 10:47:15;;;;;;;7.10;2.30;;;23.80;99.90;;;;;;4968490;28;20057;-81
2022/08/29 10:49:48;;;;;;;9.23;2.08;;;23.80;99.90;;;;;;4981772;28;20050;-81
2022/08/29 10:52:41;;;;;;;6.03;2.72;;;23.80;99.90;;;;;;4994792;28;20105;-82
2022/08/29 10:55:06;;;;;;;9.32;3.00;;;23.80;99.90;;;;;;5000303;28;20050;-80
2022/08/29 10:58:22;;;;;;;8.82;2.63;;;23.80;99.90;;;;;;4964155;28;20050;-79
2022/08/29 11:01:06;;;;;;;10.93;2.47;;;23.80;99.90;;;;;;4966299;28;20552;-82
2022/08/29 11:04:07;;;;;;;10.43;2.42;;;23.90;99.90;;;;;;4978751;28;20646;-83
2022/08/29 11:06:42;;;;;;;8.30;3.13;;;23.70;99.90;;;;;;4965085;28;20058;-82
2022/08/29 11:09:26;;;;;;;12.23;2.92;;;23.40;99.90;;;;;;4966328;28;20163;-82
2022/08/29 11:12:01;;;;;;;8.20;2.70;;;23.40;99.90;;;;;;4968626;28;20043;-81
2022/08/29 11:14:37;;;;;;;8.80;2.70;;;23.10;99.90;;;;;;4964864;28;20058;-80
2022/08/29 11:17:05;;;;;;;8.07;2.33;;;22.90;99.90;;;;;;4966669;28;20045;-80
2022/08/29 11:19:45;;;;;;;7.72;2.30;;;22.80;99.90;;;;;;4963569;28;20059;-82
2022/08/29 11:22:35;;;;;;;6.30;2.40;;;22.50;99.90;;;;;;4966578;28;20062;-80
2022/08/29 11:25:07;;;;;;;8.98;3.22;;;22.40;99.90;;;;;;4963619;28;20070;-80
2022/08/29 11:27:58;;;;;;;7.63;2.38;;;22.30;99.90;;;;;;5000142;28;20143;-80
2022/08/29 11:30:51;;;;;;;12.18;2.63;;;22.20;99.90;;;;;;4986255;28;20062;-81
2022/08/29 11:33:46;;;;;;;7.60;2.33;;;22.20;99.90;;;;;;4995708;28;20047;-80
2022/08/29 11:36:24;;;;;;;6.90;2.63;;;22.20;99.90;;;;;;4965405;28;20055;-81
2022/08/29 11:39:06;;;;;;;9.13;2.92;;;22.20;99.90;;;;;;4998942;28;20129;-80
2022/08/29 11:41:37;;;;;;;8.25;2.22;;;22.20;99.90;;;;;;4967490;28;20047;-81
2022/08/29 11:44:23;;;;;;;7.40;2.88;;;22.10;99.90;;;;;;4964336;28;20042;-80
2022/08/29 11:46:51;;;;;;;8.45;2.13;;;22.10;99.90;;;;;;4996829;28;20733;-78
2022/08/29 11:49:45;;;;;;;4.63;2.17;;;22.10;99.90;;;;;;4964982;28;20039;-80
2022/08/29 11:52:11;;;;;;;6.18;2.45;;;22.10;99.90;;;;;;4967746;28;20049;-80
2022/08/29 11:54:37;;;;;;;8.13;1.73;;;22.10;99.90;;;;;;4972704;28;20972;-80
2022/08/29 11:57:03;;;;;;;9.65;2.58;;;22.10;99.90;;;;;;4963317;28;20711;-80
2022/08/29 11:59:50;;;;;;;10.18;3.67;;;22.00;99.90;;;;;;4967323;28;20047;-80
2022/08/29 12:02:40;;;;;;;11.55;2.50;;;22.00;99.90;;;;;;4966763;28;20046;-79
2022/08/29 12:05:15;;;;;;;7.90;2.50;;;21.80;99.90;;;;;;4975604;28;20054;-80
2022/08/29 12:08:14;;;;;;;6.78;2.20;;;21.80;99.90;;;;;;4966801;28;20185;-80
2022/08/29 12:10:53;;;;;;;6.15;2.42;;;21.90;99.90;;;;;;4994171;28;20054;-80
2022/08/29 12:13:51;;;;;;;7.40;2.65;;;22.00;99.90;;;;;;4950314;28;20035;-80
2022/08/29 12:16:23;;;;;;;5.25;2.05;;;22.10;99.90;;;;;;4963279;28;20058;-80
2022/08/29 12:18:55;;;;;;;7.63;2.78;;;22.10;99.90;;;;;;4965183;28;20045;-81
2022/08/29 12:21:43;;;;;;;7.97;2.58;;;22.10;99.90;;;;;;4967979;28;20047;-79
2022/08/29 12:24:32;;;;;;;6.55;2.45;;;22.10;99.90;;;;;;4966244;28;20093;-81
2022/08/29 12:26:57;;;;;;;7.65;2.60;;;22.10;99.90;;;;;;4965751;28;20530;-80
2022/08/29 12:29:32;;;;;;;7.65;2.55;;;22.10;99.90;;;;;;4962254;28;20125;-80
2022/08/29 12:32:16;;;;;;;4.68;2.00;;;22.10;99.90;;;;;;4961709;28;20047;-80
2022/08/29 12:34:44;;;;;;;8.18;2.78;;;22.20;99.90;;;;;;4997098;28;20071;-79
2022/08/29 12:37:35;;;;;;;7.30;2.55;;;22.10;99.90;;;;;;4963081;28;20393;-80
2022/08/29 12:40:20;;;;;;;5.35;1.88;;;22.10;99.90;;;;;;4963541;28;20074;-80
2022/08/29 12:43:09;;;;;;;8.57;2.10;;;22.10;99.90;;;;;;4967063;28;20577;-79
2022/08/29 12:45:36;;;;;;;8.25;2.63;;;22.10;99.90;;;;;;4950397;28;20298;-80
2022/08/29 12:48:10;;;;;;;7.30;2.05;;;22.10;99.90;;;;;;4993030;28;20385;-80
2022/08/29 12:50:44;;;;;;;7.97;2.03;;;22.20;99.90;;;;;;4966073;28;20242;-80
2022/08/29 12:53:33;;;;;;;5.65;1.80;;;22.20;99.90;;;;;;4963067;28;20412;-80
2022/08/29 12:56:03;;;;;;;6.40;1.85;;;22.20;99.90;;;;;;4998294;28;20088;-80
2022/08/29 12:58:45;;;;;;;6.85;2.30;;;22.30;99.90;;;;;;4964634;28;20148;-80
2022/08/29 13:01:30;;;;;;;9.55;3.22;;;22.30;99.90;;;;;;4966576;28;20575;-80
2022/08/29 13:04:12;;;;;;;7.25;2.20;;;22.30;99.90;;;;;;4968610;28;20700;-80
2022/08/29 13:06:49;;;;;;;10.63;2.92;;;22.20;99.90;;;;;;4998631;28;20182;-80
2022/08/29 13:09:37;;;;;;;7.45;2.05;;;22.10;99.90;;;;;;4990902;28;20071;-80
2022/08/29 13:12:10;;;;;;;8.23;2.22;;;21.90;99.90;;;;;;4965481;28;20110;-80
2022/08/29 13:15:18;;;;;;;4.68;1.50;;;21.80;99.90;;;;;;4995288;28;20051;-80
2022/08/29 13:17:46;;;;;;;8.75;2.17;;;21.80;99.90;;;;;;4950490;28;20440;-80
2022/08/29 13:20:37;;;;;;;4.90;1.90;;;21.80;99.90;;;;;;4963869;28;20047;-80